createdAt,value
2018-07-31T00:01:10.610Z,8.73
2018-07-31T00:03:38.806Z,8.18
2018-07-31T00:06:11.274Z,8.50
2018-07-31T00:08:39.700Z,8.30
2018-07-31T00:11:08.276Z,8.30
2018-07-31T00:13:44.572Z,7.90
2018-07-31T00:18:59.049Z,8.00
2018-07-31T00:21:27.160Z,6.95
2018-07-31T00:23:55.345Z,7.80
2018-07-31T00:26:23.312Z,7.62
2018-07-31T00:28:52.334Z,8.20
2018-07-31T00:31:36.799Z,8.50
2018-07-31T00:34:05.826Z,8.55
2018-07-31T00:36:33.911Z,8.60
2018-07-31T00:39:02.331Z,8.90
2018-07-31T00:41:36.659Z,9.35
2018-07-31T00:44:05.046Z,9.48
2018-07-31T00:46:33.136Z,9.13
2018-07-31T00:49:01.420Z,9.03
2018-07-31T00:51:29.852Z,8.30
2018-07-31T00:53:58.181Z,9.30
2018-07-31T00:56:26.646Z,9.20
2018-07-31T00:58:54.837Z,9.10
2018-07-31T01:01:26.940Z,8.28
2018-07-31T01:03:55.403Z,9.30
2018-07-31T01:06:27.995Z,8.73
2018-07-31T01:08:56.416Z,8.40
2018-07-31T01:11:24.919Z,8.50
2018-07-31T01:13:53.092Z,9.20
2018-07-31T01:16:21.082Z,8.63
2018-07-31T01:18:49.490Z,8.90
2018-07-31T01:21:19.642Z,8.35
2018-07-31T01:23:47.723Z,8.27
2018-07-31T01:26:16.250Z,7.92
2018-07-31T01:28:44.518Z,8.23
2018-07-31T01:31:20.188Z,8.30
2018-07-31T01:33:48.582Z,8.60
2018-07-31T01:36:16.854Z,8.43
2018-07-31T01:38:45.082Z,8.00
2018-07-31T01:41:13.172Z,8.30
2018-07-31T01:43:41.780Z,8.55
2018-07-31T01:46:10.083Z,8.30
2018-07-31T01:48:38.362Z,8.40
2018-07-31T01:51:06.360Z,9.20
2018-07-31T01:53:34.322Z,9.33
2018-07-31T01:56:02.970Z,9.00
2018-07-31T01:58:31.058Z,8.80
2018-07-31T02:00:59.339Z,9.43
2018-07-31T02:03:27.665Z,9.20
2018-07-31T02:05:56.051Z,8.90
2018-07-31T02:08:24.657Z,9.00
2018-07-31T02:10:52.953Z,8.70
2018-07-31T02:13:20.945Z,9.00
2018-07-31T02:15:48.905Z,9.50
2018-07-31T02:18:17.436Z,9.73
2018-07-31T02:20:45.823Z,9.93
2018-07-31T02:23:14.221Z,9.00
2018-07-31T02:25:42.217Z,8.73
2018-07-31T02:28:10.061Z,9.48
2018-07-31T02:30:43.310Z,9.10
2018-07-31T02:33:11.627Z,8.95
2018-07-31T02:35:39.903Z,9.35
2018-07-31T02:38:08.178Z,9.28
2018-07-31T02:40:36.615Z,9.40
2018-07-31T02:43:05.466Z,9.73
2018-07-31T02:45:35.015Z,9.65
2018-07-31T02:48:03.543Z,9.10
2018-07-31T02:50:32.143Z,9.48
2018-07-31T02:53:00.435Z,9.00
2018-07-31T02:55:29.884Z,9.00
2018-07-31T02:57:58.286Z,9.65
2018-07-31T03:00:26.556Z,9.20
2018-07-31T03:02:54.979Z,9.70
2018-07-31T03:05:25.625Z,9.80
2018-07-31T03:07:54.011Z,9.00
2018-07-31T03:10:22.508Z,9.53
2018-07-31T03:12:50.792Z,9.20
2018-07-31T03:15:19.335Z,9.28
2018-07-31T03:17:47.737Z,9.00
2018-07-31T03:20:16.117Z,9.10
2018-07-31T03:22:44.427Z,9.70
2018-07-31T03:25:12.691Z,8.93
2018-07-31T03:27:41.628Z,9.30
2018-07-31T03:30:09.824Z,9.55
2018-07-31T03:32:38.339Z,9.03
2018-07-31T03:35:07.220Z,9.30
2018-07-31T03:37:35.644Z,9.53
2018-07-31T03:40:04.012Z,9.45
2018-07-31T03:42:32.440Z,9.23
2018-07-31T03:45:01.112Z,9.53
2018-07-31T03:47:29.416Z,10.10
2018-07-31T03:49:57.948Z,9.68
2018-07-31T03:52:26.548Z,9.70
2018-07-31T03:54:59.534Z,9.58
2018-07-31T03:57:28.045Z,10.18
2018-07-31T03:59:56.146Z,9.45
2018-07-31T04:02:24.629Z,10.63
2018-07-31T04:04:53.149Z,9.63
2018-07-31T04:07:21.556Z,10.30
2018-07-31T04:09:49.895Z,9.60
2018-07-31T04:12:18.409Z,9.88
2018-07-31T04:14:46.964Z,9.60
2018-07-31T04:17:15.473Z,9.35
2018-07-31T04:19:43.845Z,9.20
2018-07-31T04:22:13.175Z,9.60
2018-07-31T04:24:41.666Z,10.20
2018-07-31T04:27:09.565Z,9.40
2018-07-31T04:29:39.208Z,9.80
2018-07-31T04:32:07.580Z,9.75
2018-07-31T04:34:46.112Z,8.90
2018-07-31T04:37:14.511Z,9.50
2018-07-31T04:39:42.917Z,9.50
2018-07-31T04:42:11.314Z,8.83
2018-07-31T04:44:41.672Z,10.10
2018-07-31T04:47:10.052Z,9.20
2018-07-31T04:49:38.452Z,9.65
2018-07-31T04:52:07.031Z,9.00
2018-07-31T04:54:35.460Z,9.48
2018-07-31T04:57:03.861Z,9.23
2018-07-31T04:59:32.248Z,9.03
2018-07-31T05:02:00.338Z,8.85
2018-07-31T05:04:28.820Z,9.10
2018-07-31T05:06:58.278Z,8.70
2018-07-31T05:09:26.683Z,8.80
2018-07-31T05:11:55.284Z,8.97
2018-07-31T05:14:23.656Z,9.10
2018-07-31T05:16:51.930Z,9.30
2018-07-31T05:19:20.167Z,8.90
2018-07-31T05:21:48.263Z,8.40
2018-07-31T05:24:16.562Z,8.00
2018-07-31T05:26:45.273Z,7.87
2018-07-31T05:29:13.863Z,8.45
2018-07-31T05:31:42.069Z,8.20
2018-07-31T05:34:10.476Z,7.90
2018-07-31T05:36:38.946Z,7.70
2018-07-31T05:39:09.208Z,8.10
2018-07-31T05:41:37.411Z,7.55
2018-07-31T05:44:08.058Z,7.35
2018-07-31T05:46:36.432Z,7.03
2018-07-31T05:49:04.961Z,7.00
2018-07-31T05:51:33.902Z,7.10
2018-07-31T05:54:02.558Z,7.27
2018-07-31T05:56:30.882Z,7.35
2018-07-31T05:58:59.180Z,7.42
2018-07-31T06:01:27.675Z,6.95
2018-07-31T06:03:56.807Z,7.30
2018-07-31T06:06:25.089Z,7.33
2018-07-31T06:08:53.604Z,7.20
2018-07-31T06:11:22.394Z,9.18
2018-07-31T06:13:50.880Z,9.80
2018-07-31T06:16:19.396Z,7.95
2018-07-31T06:18:47.604Z,7.10
2018-07-31T06:21:15.751Z,6.22
2018-07-31T06:23:43.897Z,6.85
2018-07-31T06:26:12.299Z,6.80
2018-07-31T06:28:42.102Z,7.87
2018-07-31T06:31:10.723Z,6.95
2018-07-31T06:33:39.186Z,8.00
2018-07-31T06:36:10.780Z,6.83
2018-07-31T06:38:38.968Z,6.87
2018-07-31T06:41:07.501Z,7.08
2018-07-31T06:43:35.948Z,7.12
2018-07-31T06:46:06.430Z,6.53
2018-07-31T06:48:34.524Z,6.40
2018-07-31T06:51:02.699Z,6.10
2018-07-31T06:53:31.223Z,6.60
2018-07-31T06:55:59.528Z,6.60
2018-07-31T06:58:28.022Z,6.73
2018-07-31T07:00:56.004Z,6.58
2018-07-31T07:03:24.221Z,6.35
2018-07-31T07:05:52.495Z,6.70
2018-07-31T07:08:21.131Z,6.90
2018-07-31T07:10:49.487Z,6.50
2018-07-31T07:13:17.923Z,6.40
2018-07-31T07:15:47.679Z,6.75
2018-07-31T07:18:15.920Z,6.60
2018-07-31T07:20:44.350Z,6.50
2018-07-31T07:23:12.616Z,7.03
2018-07-31T07:25:40.723Z,6.92
2018-07-31T07:28:08.949Z,6.45
2018-07-31T07:30:37.429Z,6.60
2018-07-31T07:33:06.028Z,6.60
2018-07-31T07:35:33.998Z,6.83
2018-07-31T07:38:02.611Z,7.10
2018-07-31T07:40:30.710Z,6.67
2018-07-31T07:42:58.798Z,7.15
2018-07-31T07:45:26.917Z,7.40
2018-07-31T07:47:55.302Z,6.30
2018-07-31T07:50:23.928Z,7.08
2018-07-31T07:52:52.627Z,7.08
2018-07-31T07:55:21.115Z,7.00
2018-07-31T07:57:49.827Z,6.85
2018-07-31T08:00:18.211Z,7.00
2018-07-31T08:02:46.404Z,6.87
2018-07-31T08:05:14.834Z,6.85
2018-07-31T08:07:43.221Z,7.00
2018-07-31T08:10:12.542Z,7.30
2018-07-31T08:12:40.961Z,6.92
2018-07-31T08:15:09.466Z,7.00
2018-07-31T08:17:37.919Z,7.62
2018-07-31T08:20:06.787Z,6.95
2018-07-31T08:22:35.453Z,7.13
2018-07-31T08:25:04.129Z,7.20
2018-07-31T08:27:32.740Z,7.20
2018-07-31T08:30:01.251Z,7.33
2018-07-31T08:32:33.301Z,7.20
2018-07-31T08:35:01.857Z,7.20
2018-07-31T08:37:30.461Z,7.20
2018-07-31T08:39:58.760Z,7.40
2018-07-31T08:42:26.845Z,7.60
2018-07-31T08:44:55.354Z,8.10
2018-07-31T08:47:23.754Z,7.80
2018-07-31T08:49:52.133Z,7.95
2018-07-31T08:52:20.515Z,8.15
2018-07-31T08:54:48.838Z,7.85
2018-07-31T08:57:16.913Z,8.30
2018-07-31T08:59:45.535Z,8.48
2018-07-31T09:02:13.848Z,8.18
2018-07-31T09:04:47.084Z,7.92
2018-07-31T09:07:15.779Z,8.70
2018-07-31T09:09:44.850Z,8.40
2018-07-31T09:12:12.935Z,8.50
2018-07-31T09:14:41.578Z,8.20
2018-07-31T09:17:10.603Z,8.80
2018-07-31T09:19:39.099Z,7.60
2018-07-31T09:22:07.895Z,7.80
2018-07-31T09:24:36.651Z,8.15
2018-07-31T09:27:05.114Z,8.30
2018-07-31T09:29:34.010Z,8.45
2018-07-31T09:32:03.037Z,8.70
2018-07-31T09:34:34.929Z,8.80
2018-07-31T09:37:03.560Z,8.60
2018-07-31T09:39:32.127Z,8.10
2018-07-31T09:42:00.922Z,7.90
2018-07-31T09:44:30.109Z,7.60
2018-07-31T09:46:58.838Z,7.50
2018-07-31T09:49:27.131Z,7.80
2018-07-31T09:51:55.962Z,8.10
2018-07-31T09:54:24.434Z,7.92
2018-07-31T09:56:53.879Z,7.73
2018-07-31T09:59:22.592Z,7.50
2018-07-31T10:01:51.219Z,7.30
2018-07-31T10:04:20.550Z,7.50
2018-07-31T10:06:49.634Z,7.67
2018-07-31T10:09:18.365Z,7.20
2018-07-31T10:11:46.922Z,7.60
2018-07-31T10:14:15.764Z,7.47
2018-07-31T10:16:44.321Z,7.53
2018-07-31T10:19:12.771Z,8.05
2018-07-31T10:21:41.239Z,7.78
2018-07-31T10:24:09.270Z,7.00
2018-07-31T10:26:37.522Z,5.90
2018-07-31T10:29:05.926Z,6.40
2018-07-31T10:31:34.413Z,7.47
2018-07-31T10:34:02.944Z,7.70
2018-07-31T10:36:31.434Z,8.40
2018-07-31T10:38:59.955Z,8.20
2018-07-31T10:41:29.047Z,8.38
2018-07-31T10:43:57.189Z,8.58
2018-07-31T10:46:25.668Z,7.85
2018-07-31T10:48:54.064Z,8.40
2018-07-31T10:51:22.565Z,7.80
2018-07-31T10:53:50.956Z,7.83
2018-07-31T10:56:19.052Z,8.10
2018-07-31T10:58:47.664Z,8.05
2018-07-31T11:01:16.055Z,8.20
2018-07-31T11:03:44.459Z,7.80
2018-07-31T11:06:13.075Z,7.50
2018-07-31T11:08:41.775Z,8.40
2018-07-31T11:11:10.260Z,8.30
2018-07-31T11:13:38.570Z,7.80
2018-07-31T11:16:06.967Z,7.50
2018-07-31T11:18:35.273Z,7.55
2018-07-31T11:21:04.279Z,8.10
2018-07-31T11:23:32.677Z,7.60
2018-07-31T11:26:01.093Z,7.20
2018-07-31T11:28:29.662Z,8.25
2018-07-31T11:30:59.010Z,7.10
2018-07-31T11:33:27.322Z,7.17
2018-07-31T11:35:56.003Z,7.67
2018-07-31T11:38:24.643Z,7.20
2018-07-31T11:40:53.200Z,8.13
2018-07-31T11:43:21.402Z,8.60
2018-07-31T11:45:49.813Z,8.70
2018-07-31T11:48:18.291Z,8.40
2018-07-31T11:50:46.688Z,8.40
2018-07-31T11:53:14.976Z,8.90
2018-07-31T11:55:43.497Z,9.00
2018-07-31T11:58:11.848Z,9.60
2018-07-31T12:00:40.316Z,9.13
2018-07-31T12:03:08.587Z,9.33
2018-07-31T12:05:36.999Z,8.95
2018-07-31T12:08:05.218Z,8.60
2018-07-31T12:10:33.719Z,9.10
2018-07-31T12:13:02.923Z,8.13
2018-07-31T12:15:31.336Z,9.20
2018-07-31T12:18:00.722Z,8.93
2018-07-31T12:20:29.349Z,8.58
2018-07-31T12:22:57.841Z,9.10
2018-07-31T12:25:26.339Z,9.08
2018-07-31T12:27:54.425Z,8.70
2018-07-31T12:30:23.101Z,8.75
2018-07-31T12:32:51.506Z,9.00
2018-07-31T12:35:20.064Z,9.03
2018-07-31T12:37:49.324Z,9.38
2018-07-31T12:40:17.760Z,9.35
2018-07-31T12:42:45.934Z,9.87
2018-07-31T12:45:14.278Z,9.95
2018-07-31T12:47:42.549Z,9.95
2018-07-31T12:50:10.779Z,9.38
2018-07-31T12:52:39.149Z,10.15
2018-07-31T12:55:07.239Z,9.20
2018-07-31T12:57:35.320Z,9.60
2018-07-31T13:00:04.281Z,9.80
2018-07-31T13:02:32.758Z,9.40
2018-07-31T13:05:00.850Z,9.35
2018-07-31T13:07:29.136Z,9.25
2018-07-31T13:09:57.218Z,9.50
2018-07-31T13:12:25.942Z,9.05
2018-07-31T13:14:54.056Z,9.80
2018-07-31T13:17:22.545Z,9.98
2018-07-31T13:19:50.829Z,9.43
2018-07-31T13:22:18.937Z,8.47
2018-07-31T13:24:47.539Z,9.13
2018-07-31T13:27:15.973Z,8.98
2018-07-31T13:29:44.762Z,9.85
2018-07-31T13:32:13.257Z,10.65
2018-07-31T13:34:41.660Z,11.20
2018-07-31T13:37:10.260Z,11.22
2018-07-31T13:39:38.663Z,11.40
2018-07-31T13:42:07.234Z,10.60
2018-07-31T13:44:35.632Z,10.70
2018-07-31T13:47:03.850Z,11.00
2018-07-31T13:49:32.163Z,11.68
2018-07-31T13:52:00.678Z,11.22
2018-07-31T13:54:29.205Z,11.30
2018-07-31T13:56:57.556Z,11.00
2018-07-31T13:59:25.746Z,10.40
2018-07-31T14:01:54.048Z,10.60
2018-07-31T14:04:22.568Z,10.50
2018-07-31T14:06:50.830Z,9.60
2018-07-31T14:09:18.916Z,9.35
2018-07-31T14:11:47.528Z,10.40
2018-07-31T14:14:15.955Z,9.98
2018-07-31T14:16:44.353Z,10.05
2018-07-31T14:19:12.632Z,9.55
2018-07-31T14:21:41.024Z,10.30
2018-07-31T14:24:09.128Z,10.32
2018-07-31T14:26:37.218Z,10.08
2018-07-31T14:29:05.396Z,12.65
2018-07-31T14:31:33.929Z,9.38
2018-07-31T14:34:02.323Z,11.73
2018-07-31T14:36:30.513Z,10.23
2018-07-31T14:38:58.797Z,9.65
2018-07-31T14:41:27.009Z,10.05
2018-07-31T14:43:54.983Z,10.13
2018-07-31T14:46:22.882Z,10.00
2018-07-31T14:48:50.960Z,10.13
2018-07-31T14:51:19.368Z,10.40
2018-07-31T14:53:47.780Z,9.80
2018-07-31T14:56:16.077Z,10.10
2018-07-31T14:58:44.554Z,9.60
2018-07-31T15:01:12.982Z,10.00
2018-07-31T15:03:41.368Z,9.13
2018-07-31T15:06:09.597Z,9.68
2018-07-31T15:08:38.664Z,9.30
2018-07-31T15:11:08.336Z,9.00
2018-07-31T15:13:36.238Z,8.60
2018-07-31T15:16:04.472Z,8.73
2018-07-31T15:18:32.903Z,9.03
2018-07-31T15:21:01.380Z,8.90
2018-07-31T15:23:29.512Z,9.10
2018-07-31T15:25:58.159Z,8.10
2018-07-31T15:28:26.486Z,8.50
2018-07-31T15:30:54.479Z,8.60
2018-07-31T15:33:26.364Z,9.10
2018-07-31T15:35:54.768Z,9.13
2018-07-31T15:38:22.950Z,8.40
2018-07-31T15:40:51.234Z,8.15
2018-07-31T15:43:19.647Z,8.48
2018-07-31T15:45:47.881Z,8.70
2018-07-31T15:48:16.086Z,8.10
2018-07-31T15:50:44.350Z,8.60
2018-07-31T15:53:12.648Z,8.10
2018-07-31T15:55:40.944Z,9.10
2018-07-31T15:58:09.561Z,8.95
2018-07-31T16:00:38.038Z,9.00
2018-07-31T16:03:06.240Z,8.95
2018-07-31T16:05:34.444Z,9.05
2018-07-31T16:08:03.019Z,9.00
2018-07-31T16:10:31.746Z,8.70
2018-07-31T16:12:59.946Z,9.45
2018-07-31T16:15:28.343Z,8.80
2018-07-31T16:17:56.540Z,8.80
2018-07-31T16:20:24.744Z,8.60
2018-07-31T16:22:53.405Z,8.53
2018-07-31T16:25:21.509Z,8.90
2018-07-31T16:27:49.940Z,8.45
2018-07-31T16:30:18.131Z,9.18
2018-07-31T16:32:46.535Z,8.80
2018-07-31T16:35:15.004Z,8.78
2018-07-31T16:37:43.571Z,8.50
2018-07-31T16:40:12.666Z,9.20
2018-07-31T16:42:41.051Z,8.77
2018-07-31T16:45:09.919Z,9.00
2018-07-31T16:47:38.243Z,9.15
2018-07-31T16:50:07.479Z,9.00
2018-07-31T16:52:35.981Z,8.50
2018-07-31T16:55:04.394Z,9.60
2018-07-31T16:57:32.752Z,8.95
2018-07-31T17:00:00.969Z,9.80
2018-07-31T17:02:29.134Z,9.48
2018-07-31T17:04:57.666Z,9.93
2018-07-31T17:07:25.900Z,10.15
2018-07-31T17:09:54.367Z,10.25
2018-07-31T17:12:22.723Z,10.30
2018-07-31T17:14:56.972Z,10.03
2018-07-31T17:17:26.127Z,10.10
2018-07-31T17:19:54.588Z,10.85
2018-07-31T17:22:22.926Z,10.85
2018-07-31T17:24:51.443Z,10.75
2018-07-31T17:27:19.691Z,11.33
2018-07-31T17:29:48.204Z,10.90
2018-07-31T17:32:16.974Z,10.78
2018-07-31T17:34:46.859Z,10.70
2018-07-31T17:37:15.629Z,11.20
2018-07-31T17:39:44.883Z,11.20
2018-07-31T17:42:17.089Z,10.40
2018-07-31T17:44:45.593Z,10.63
2018-07-31T17:47:14.007Z,10.65
2018-07-31T17:49:42.279Z,10.87
2018-07-31T17:52:10.329Z,10.80
2018-07-31T17:54:39.045Z,11.20
2018-07-31T17:57:07.562Z,11.00
2018-07-31T17:59:38.346Z,11.00
2018-07-31T18:02:07.042Z,10.85
2018-07-31T18:04:35.542Z,10.90
2018-07-31T18:07:04.147Z,10.50
2018-07-31T18:09:32.735Z,10.57
2018-07-31T18:12:00.989Z,10.80
2018-07-31T18:14:29.776Z,11.05
2018-07-31T18:16:58.726Z,11.10
2018-07-31T18:19:27.346Z,10.78
2018-07-31T18:21:57.570Z,10.95
2018-07-31T18:24:26.324Z,11.08
2018-07-31T18:26:54.811Z,11.00
2018-07-31T18:29:30.508Z,11.22
2018-07-31T18:31:59.306Z,11.80
2018-07-31T18:34:27.873Z,11.40
2018-07-31T18:36:57.217Z,11.00
2018-07-31T18:39:26.528Z,11.18
2018-07-31T18:41:55.039Z,11.78
2018-07-31T18:44:25.329Z,11.60
2018-07-31T18:46:53.766Z,12.20
2018-07-31T18:49:26.082Z,11.50
2018-07-31T18:51:54.948Z,11.60
2018-07-31T18:54:23.533Z,11.65
2018-07-31T18:56:52.079Z,11.35
2018-07-31T18:59:24.363Z,11.70
2018-07-31T19:01:52.890Z,11.63
2018-07-31T19:04:22.326Z,11.70
2018-07-31T19:06:50.935Z,12.00
2018-07-31T19:09:23.267Z,12.00
2018-07-31T19:11:52.677Z,12.10
2018-07-31T19:14:21.197Z,12.20
2018-07-31T19:16:49.683Z,12.03
2018-07-31T19:19:18.432Z,11.77
2018-07-31T19:21:47.824Z,13.25
2018-07-31T19:24:15.924Z,13.15
2018-07-31T19:26:44.436Z,16.37
2018-07-31T19:29:12.998Z,15.75
2018-07-31T19:31:48.829Z,16.23
2018-07-31T19:34:17.299Z,14.87
2018-07-31T19:36:45.907Z,14.40
2018-07-31T19:39:14.907Z,13.60
2018-07-31T19:41:44.291Z,14.00
2018-07-31T19:44:12.838Z,12.95
2018-07-31T19:46:42.055Z,13.40
2018-07-31T19:49:13.888Z,13.00
2018-07-31T19:51:42.738Z,11.95
2018-07-31T19:54:11.045Z,13.08
2018-07-31T19:56:39.340Z,12.90
2018-07-31T19:59:07.947Z,13.28
2018-07-31T20:01:36.465Z,12.85
2018-07-31T20:04:05.076Z,12.60
2018-07-31T20:06:33.430Z,12.50
2018-07-31T20:09:06.435Z,13.00
2018-07-31T20:11:35.965Z,12.37
2018-07-31T20:14:04.376Z,12.60
2018-07-31T20:16:33.633Z,13.10
2018-07-31T20:19:02.912Z,12.85
2018-07-31T20:21:32.215Z,13.40
2018-07-31T20:24:00.631Z,12.95
2018-07-31T20:26:29.251Z,12.90
2018-07-31T20:29:00.276Z,12.80
2018-07-31T20:31:29.001Z,13.00
2018-07-31T20:33:57.492Z,12.45
2018-07-31T20:36:26.148Z,12.63
2018-07-31T20:38:54.946Z,12.40
2018-07-31T20:41:23.690Z,12.82
2018-07-31T20:43:52.131Z,12.80
2018-07-31T20:46:21.745Z,12.73
2018-07-31T20:48:50.048Z,13.22
2018-07-31T20:51:18.441Z,13.20
2018-07-31T20:53:49.814Z,13.05
2018-07-31T20:56:18.080Z,13.10
2018-07-31T20:58:46.410Z,13.18
2018-07-31T21:01:15.328Z,13.50
2018-07-31T21:03:43.839Z,13.48
2018-07-31T21:06:12.354Z,13.00
2018-07-31T21:08:41.035Z,13.50
2018-07-31T21:11:09.620Z,13.70
2018-07-31T21:13:38.145Z,13.00
2018-07-31T21:16:06.643Z,12.43
2018-07-31T21:18:41.012Z,12.73
2018-07-31T21:21:09.474Z,12.93
2018-07-31T21:23:37.883Z,13.45
2018-07-31T21:26:06.804Z,13.50
2018-07-31T21:28:39.127Z,13.25
2018-07-31T21:31:07.463Z,13.55
2018-07-31T21:33:35.899Z,12.90
2018-07-31T21:36:05.133Z,13.40
2018-07-31T21:38:33.572Z,13.68
2018-07-31T21:41:02.208Z,13.20
2018-07-31T21:43:31.531Z,14.00
2018-07-31T21:46:00.226Z,13.35
2018-07-31T21:48:29.629Z,14.28
2018-07-31T21:50:57.957Z,13.40
2018-07-31T21:53:26.364Z,13.85
2018-07-31T21:55:54.837Z,13.93
2018-07-31T21:58:22.922Z,13.05
2018-07-31T22:00:56.652Z,13.72
2018-07-31T22:03:24.932Z,13.30
2018-07-31T22:05:53.052Z,13.25
2018-07-31T22:08:21.423Z,12.98
2018-07-31T22:10:50.273Z,13.48
2018-07-31T22:13:18.858Z,13.38
2018-07-31T22:15:47.250Z,13.30
2018-07-31T22:18:15.620Z,14.00
2018-07-31T22:20:44.333Z,13.72
2018-07-31T22:23:12.628Z,12.80
2018-07-31T22:25:40.931Z,10.95
2018-07-31T22:28:09.247Z,8.10
2018-07-31T22:30:37.346Z,7.90
2018-07-31T22:33:05.914Z,7.30
2018-07-31T22:35:34.343Z,7.20
2018-07-31T22:38:02.432Z,7.53
2018-07-31T22:40:30.640Z,7.75
2018-07-31T22:42:59.033Z,8.20
2018-07-31T22:45:27.437Z,9.00
2018-07-31T22:47:55.670Z,10.50
2018-07-31T22:50:25.473Z,10.30
2018-07-31T22:52:53.950Z,8.75
2018-07-31T22:55:22.343Z,9.57
2018-07-31T22:57:50.914Z,10.25
2018-07-31T23:00:22.953Z,11.22
2018-07-31T23:02:51.577Z,12.03
2018-07-31T23:05:20.142Z,11.30
2018-07-31T23:07:50.710Z,11.00
2018-07-31T23:10:19.980Z,11.25
2018-07-31T23:12:49.026Z,11.33
2018-07-31T23:15:17.422Z,11.75
2018-07-31T23:17:46.135Z,12.03
2018-07-31T23:20:14.340Z,12.00
2018-07-31T23:22:46.111Z,11.50
2018-07-31T23:25:14.827Z,11.88
2018-07-31T23:27:42.933Z,11.45
2018-07-31T23:30:11.382Z,10.53
2018-07-31T23:32:40.252Z,11.50
2018-07-31T23:35:08.899Z,11.60
2018-07-31T23:37:37.333Z,11.68
2018-07-31T23:40:06.143Z,11.53
2018-07-31T23:42:39.670Z,11.78
2018-07-31T23:45:08.158Z,12.03
2018-07-31T23:47:36.756Z,12.70
2018-07-31T23:50:05.268Z,11.70
2018-07-31T23:52:37.335Z,12.40
2018-07-31T23:55:05.821Z,11.55
2018-07-31T23:57:34.160Z,10.80
